Time;durP1;ratioP1;P1;durP2;ratioP2;P2;SDS_P1;SDS_P2;PMS_P1;PMS_P2;Temp;Humidity;BMP_temperature;BMP_pressure;BME280_temperature;BME280_humidity;BME280_pressure;Samples;Min_cycle;Max_cycle;Signal;HPM_P1;HPM_P2
2020/12/17 00:01:07;;;;;;;5.57;3.53;;;12.00;99.90;;;;;;4920386;29;20028;-67
2020/12/17 00:03:33;;;;;;;5.45;4.30;;;12.10;99.90;;;;;;4919969;29;20115;-66
2020/12/17 00:05:59;;;;;;;6.10;4.18;;;12.00;99.90;;;;;;4903013;29;20032;-67
2020/12/17 00:08:24;;;;;;;6.78;4.68;;;12.00;99.90;;;;;;4919820;29;20036;-69
2020/12/17 00:10:50;;;;;;;5.25;4.03;;;12.00;99.90;;;;;;4920177;29;20373;-68
2020/12/17 00:13:16;;;;;;;6.05;4.38;;;12.00;99.90;;;;;;4920160;29;20384;-69
2020/12/17 00:15:41;;;;;;;6.07;4.10;;;12.00;99.90;;;;;;4920193;29;20440;-69
2020/12/17 00:21:29;;;;;;;7.55;4.60;;;12.00;99.90;;;;;;4919958;29;20088;-69
2020/12/17 00:23:56;;;;;;;7.88;4.93;;;12.00;99.90;;;;;;4919961;29;20040;-68
2020/12/17 00:26:25;;;;;;;6.50;4.60;;;12.00;99.90;;;;;;4919710;29;20107;-68
2020/12/17 00:28:51;;;;;;;6.18;4.40;;;12.00;99.90;;;;;;4919532;29;20396;-68
2020/12/17 00:31:17;;;;;;;8.73;6.15;;;12.00;99.90;;;;;;4919463;29;20457;-68
2020/12/17 00:33:43;;;;;;;6.90;4.88;;;12.00;99.90;;;;;;4919752;29;20039;-69
2020/12/17 00:36:08;;;;;;;7.60;5.05;;;12.00;99.90;;;;;;4919306;29;20071;-68
2020/12/17 00:38:34;;;;;;;6.55;4.57;;;12.00;99.90;;;;;;4919656;29;20032;-68
2020/12/17 00:41:00;;;;;;;6.40;5.20;;;12.00;99.90;;;;;;4919671;29;20173;-70
2020/12/17 00:43:25;;;;;;;12.93;5.38;;;12.00;99.90;;;;;;4919651;29;20036;-70
2020/12/17 00:45:51;;;;;;;5.93;4.88;;;12.00;99.90;;;;;;4919270;29;20460;-68
2020/12/17 00:51:39;;;;;;;7.43;5.40;;;12.00;99.90;;;;;;4919524;29;20456;-68
2020/12/17 00:54:04;;;;;;;7.47;5.75;;;11.90;99.90;;;;;;4919345;29;20067;-68
2020/12/17 00:56:30;;;;;;;6.72;5.10;;;11.90;99.90;;;;;;4919087;29;20051;-68
2020/12/17 00:58:55;;;;;;;6.93;5.50;;;11.90;99.90;;;;;;4919114;29;20032;-68
2020/12/17 01:01:21;;;;;;;8.63;5.38;;;11.90;99.90;;;;;;4919020;29;20028;-69
2020/12/17 01:03:47;;;;;;;9.90;6.00;;;11.90;99.90;;;;;;4902514;29;20039;-68
2020/12/17 01:06:12;;;;;;;9.07;5.55;;;11.90;99.90;;;;;;4918866;29;20500;-69
2020/12/17 01:08:38;;;;;;;7.93;5.75;;;11.90;99.90;;;;;;4918665;29;20028;-69
2020/12/17 01:11:04;;;;;;;10.02;5.80;;;11.90;99.90;;;;;;4918917;29;20028;-68
2020/12/17 01:13:29;;;;;;;8.40;5.88;;;11.80;99.90;;;;;;4919117;29;20032;-69
2020/12/17 01:15:55;;;;;;;8.77;6.43;;;11.90;99.90;;;;;;4919043;29;20035;-69
2020/12/17 01:21:43;;;;;;;7.78;6.32;;;11.80;99.90;;;;;;4918940;29;20031;-69
2020/12/17 01:24:09;;;;;;;7.60;6.13;;;11.80;99.90;;;;;;4918616;29;20028;-69
2020/12/17 01:26:34;;;;;;;6.38;5.70;;;11.80;99.90;;;;;;4918564;29;20040;-69
2020/12/17 01:29:00;;;;;;;8.50;6.50;;;11.80;99.90;;;;;;4918752;29;20100;-70
2020/12/17 01:31:26;;;;;;;9.55;7.22;;;11.80;99.90;;;;;;4918572;29;20025;-66
2020/12/17 01:37:13;;;;;;;9.07;7.10;;;11.80;99.90;;;;;;4908331;29;20556;-68
2020/12/17 01:39:39;;;;;;;9.88;6.95;;;11.80;99.90;;;;;;4918705;29;20036;-68
2020/12/17 01:42:05;;;;;;;10.35;7.22;;;11.80;99.90;;;;;;4918342;29;20032;-66
2020/12/17 01:44:30;;;;;;;11.27;7.88;;;11.80;99.90;;;;;;4918583;29;20389;-66
2020/12/17 01:46:56;;;;;;;10.75;7.85;;;11.80;99.90;;;;;;4918258;29;20020;-66
2020/12/17 01:49:24;;;;;;;13.38;8.20;;;11.70;99.90;;;;;;4918345;29;20479;-68
2020/12/17 01:51:51;;;;;;;9.77;7.53;;;11.70;99.90;;;;;;4918467;29;20025;-65
2020/12/17 01:54:17;;;;;;;12.38;8.20;;;11.70;99.90;;;;;;4918330;29;20055;-67
2020/12/17 01:56:48;;;;;;;10.65;8.43;;;11.70;99.90;;;;;;4918394;29;20075;-69
2020/12/17 01:59:24;;;;;;;11.23;8.30;;;11.70;99.90;;;;;;4918074;29;20028;-68
2020/12/17 02:01:52;;;;;;;9.88;8.63;;;11.70;99.90;;;;;;4918206;29;20028;-69
2020/12/17 02:04:20;;;;;;;10.52;8.90;;;11.70;99.90;;;;;;4918205;29;20103;-68
2020/12/17 02:06:47;;;;;;;14.35;9.30;;;11.70;99.90;;;;;;4917934;29;20036;-68
2020/12/17 02:09:16;;;;;;;11.13;8.73;;;11.70;99.90;;;;;;4917850;29;20054;-68
2020/12/17 02:11:58;;;;;;;10.80;9.10;;;11.70;99.90;;;;;;4917975;29;20052;-69
2020/12/17 02:14:25;;;;;;;11.27;9.07;;;11.70;99.90;;;;;;4917948;29;20127;-68
2020/12/17 02:16:51;;;;;;;12.57;9.65;;;11.70;99.90;;;;;;4917914;29;20023;-68
2020/12/17 02:19:17;;;;;;;10.70;9.23;;;11.70;99.90;;;;;;4917628;29;20124;-70
2020/12/17 02:21:43;;;;;;;13.50;8.88;;;11.70;99.90;;;;;;4917644;29;20164;-69
2020/12/17 02:24:09;;;;;;;11.00;8.70;;;11.70;99.90;;;;;;4917783;29;20068;-69
2020/12/17 02:26:35;;;;;;;11.82;8.40;;;11.70;99.90;;;;;;4917792;29;20059;-66
2020/12/17 02:29:01;;;;;;;11.07;9.40;;;11.70;99.90;;;;;;4917655;29;20115;-67
2020/12/17 02:31:27;;;;;;;9.45;8.45;;;11.70;99.90;;;;;;4917589;29;20024;-68
2020/12/17 02:37:15;;;;;;;12.65;8.57;;;11.70;99.90;;;;;;4917084;29;20078;-67
2020/12/17 02:39:40;;;;;;;9.88;8.07;;;11.80;99.90;;;;;;4917542;29;20111;-67
2020/12/17 02:42:06;;;;;;;8.25;7.15;;;11.70;99.90;;;;;;4917411;29;20071;-67
2020/12/17 02:44:32;;;;;;;8.68;7.03;;;11.70;99.90;;;;;;4917186;29;20596;-68
2020/12/17 02:46:58;;;;;;;9.20;7.50;;;11.70;99.90;;;;;;4917462;29;20028;-66
2020/12/17 02:52:45;;;;;;;9.75;7.45;;;11.60;99.90;;;;;;4917345;29;20452;-67
2020/12/17 02:55:11;;;;;;;8.30;7.38;;;11.60;99.90;;;;;;4917299;29;20064;-65
2020/12/17 02:57:37;;;;;;;10.32;7.53;;;11.70;99.90;;;;;;4916783;29;20140;-67
2020/12/17 03:00:08;;;;;;;8.35;7.10;;;11.60;99.90;;;;;;4917016;29;20174;-66
2020/12/17 03:02:34;;;;;;;11.00;6.97;;;11.60;99.90;;;;;;4916601;29;20024;-67
2020/12/17 03:05:00;;;;;;;8.38;6.72;;;11.70;99.90;;;;;;4917123;29;20040;-68
2020/12/17 03:07:26;;;;;;;9.93;6.95;;;11.60;99.90;;;;;;4916765;29;20040;-67
2020/12/17 03:09:52;;;;;;;9.43;7.32;;;11.60;99.90;;;;;;4916742;29;20043;-69
2020/12/17 03:12:17;;;;;;;9.57;7.07;;;11.60;99.90;;;;;;4916574;29;20051;-68
2020/12/17 03:14:43;;;;;;;8.75;7.22;;;11.60;99.90;;;;;;4916785;29;20028;-66
2020/12/17 03:17:09;;;;;;;8.77;6.93;;;11.60;99.90;;;;;;4916871;29;20020;-68
2020/12/17 03:19:35;;;;;;;7.53;6.47;;;11.50;99.90;;;;;;4916989;29;20485;-67
2020/12/17 03:22:00;;;;;;;11.05;6.90;;;11.50;99.90;;;;;;4916920;29;20028;-68
2020/12/17 03:24:26;;;;;;;9.02;6.55;;;11.40;99.90;;;;;;4916867;29;20503;-68
2020/12/17 03:26:52;;;;;;;8.80;6.20;;;11.50;99.90;;;;;;4916893;29;20493;-68
2020/12/17 03:29:17;;;;;;;7.78;6.47;;;11.50;99.90;;;;;;4916477;29;20604;-68
2020/12/17 03:31:43;;;;;;;10.30;6.50;;;11.50;99.90;;;;;;4916912;29;20083;-66
2020/12/17 03:37:30;;;;;;;8.88;5.70;;;11.40;99.90;;;;;;4914000;29;20147;-67
2020/12/17 03:39:56;;;;;;;8.40;6.22;;;11.40;99.90;;;;;;4916774;29;20072;-67
2020/12/17 03:42:22;;;;;;;7.47;6.28;;;11.40;99.90;;;;;;4916954;29;20034;-68
2020/12/17 03:44:47;;;;;;;8.45;5.90;;;11.40;99.90;;;;;;4916816;29;20036;-68
2020/12/17 03:47:13;;;;;;;7.80;5.50;;;11.40;99.90;;;;;;4916412;29;20114;-68
2020/12/17 03:53:01;;;;;;;7.15;5.65;;;11.30;99.90;;;;;;4916380;29;20444;-68
2020/12/17 03:55:26;;;;;;;6.43;5.28;;;11.30;99.90;;;;;;4916667;29;20060;-68
2020/12/17 03:57:52;;;;;;;7.60;4.95;;;11.30;99.90;;;;;;4916455;29;20536;-66
2020/12/17 04:00:17;;;;;;;7.65;5.05;;;11.30;99.90;;;;;;4916340;29;20032;-68
2020/12/17 04:02:43;;;;;;;5.65;4.70;;;11.20;99.90;;;;;;4916603;29;20040;-68
2020/12/17 04:05:09;;;;;;;7.72;4.60;;;11.20;99.90;;;;;;4916307;29;20043;-69
2020/12/17 04:07:34;;;;;;;6.35;4.22;;;11.20;99.90;;;;;;4916220;29;20123;-67
2020/12/17 04:10:00;;;;;;;5.38;4.07;;;11.20;99.90;;;;;;4916190;29;20122;-67
2020/12/17 04:12:26;;;;;;;5.72;3.88;;;11.20;99.90;;;;;;4916504;29;20048;-66
2020/12/17 04:14:52;;;;;;;5.25;4.15;;;11.20;99.90;;;;;;4916471;29;20416;-66
2020/12/17 04:17:17;;;;;;;4.85;3.85;;;11.20;99.90;;;;;;4916242;29;20115;-66
2020/12/17 04:23:05;;;;;;;7.35;4.22;;;11.20;99.90;;;;;;4918436;29;20131;-66
2020/12/17 04:25:30;;;;;;;5.55;4.13;;;11.10;99.90;;;;;;4919930;29;20111;-67
2020/12/17 04:27:56;;;;;;;6.10;4.10;;;11.20;99.90;;;;;;4919513;29;20032;-67
2020/12/17 04:30:21;;;;;;;5.55;4.43;;;11.20;99.90;;;;;;4919590;29;20036;-62
2020/12/17 04:32:47;;;;;;;7.38;4.05;;;11.20;99.90;;;;;;4920002;29;20024;-64
2020/12/17 04:35:13;;;;;;;6.70;4.38;;;11.20;99.90;;;;;;4919660;29;20512;-66
2020/12/17 04:37:38;;;;;;;6.32;4.15;;;11.10;99.90;;;;;;4919437;29;20408;-66
2020/12/17 04:40:04;;;;;;;5.93;4.13;;;11.20;99.90;;;;;;4919778;29;20424;-67
2020/12/17 04:42:31;;;;;;;7.32;4.47;;;11.10;99.90;;;;;;4902544;29;20062;-69
2020/12/17 04:45:00;;;;;;;6.10;4.38;;;11.20;99.90;;;;;;4919702;29;20028;-67
2020/12/17 04:47:30;;;;;;;6.43;3.92;;;11.20;99.90;;;;;;4919229;29;20115;-67
2020/12/17 04:53:18;;;;;;;6.28;4.25;;;11.20;99.90;;;;;;4919509;29;20048;-66
2020/12/17 04:55:47;;;;;;;6.43;4.28;;;11.20;99.90;;;;;;4919447;29;20418;-68
2020/12/17 04:58:19;;;;;;;6.85;4.30;;;11.20;99.90;;;;;;4919328;29;20028;-67
2020/12/17 05:00:51;;;;;;;6.75;4.30;;;11.20;99.90;;;;;;4919458;29;20032;-67
2020/12/17 05:03:19;;;;;;;5.47;4.35;;;11.20;99.90;;;;;;4919239;29;20437;-68
2020/12/17 05:05:45;;;;;;;6.13;4.00;;;11.30;99.90;;;;;;4918922;29;20111;-69
2020/12/17 05:08:11;;;;;;;7.22;4.32;;;11.30;99.90;;;;;;4919101;29;20127;-69
2020/12/17 05:10:36;;;;;;;6.00;4.28;;;11.30;99.90;;;;;;4919145;29;20051;-68
2020/12/17 05:13:02;;;;;;;6.43;4.07;;;11.30;99.90;;;;;;4918920;29;20028;-68
2020/12/17 05:15:28;;;;;;;8.18;4.35;;;11.30;99.90;;;;;;4919087;29;20123;-69
2020/12/17 05:17:53;;;;;;;6.95;4.38;;;11.30;99.90;;;;;;4918757;29;20425;-68
2020/12/17 05:20:19;;;;;;;5.43;4.07;;;11.30;99.90;;;;;;4901800;29;20066;-67
2020/12/17 05:22:46;;;;;;;7.82;4.45;;;11.30;99.90;;;;;;4919025;29;20060;-67
2020/12/17 05:25:14;;;;;;;7.53;4.43;;;11.30;99.90;;;;;;4918687;29;20032;-67
2020/12/17 05:27:41;;;;;;;6.95;4.60;;;11.30;99.90;;;;;;4918901;29;20115;-67
2020/12/17 05:30:07;;;;;;;8.00;4.60;;;11.30;99.90;;;;;;4918827;29;20044;-66
2020/12/17 05:32:33;;;;;;;6.90;4.68;;;11.30;99.90;;;;;;4918647;29;20040;-63
2020/12/17 05:38:24;;;;;;;9.50;4.82;;;11.30;99.90;;;;;;4910965;29;20607;-65
2020/12/17 05:40:51;;;;;;;10.27;5.00;;;11.30;99.90;;;;;;4918748;29;20123;-66
2020/12/17 05:43:22;;;;;;;8.63;4.82;;;11.30;99.90;;;;;;4918325;29;20071;-67
2020/12/17 05:45:48;;;;;;;8.75;4.93;;;11.20;99.90;;;;;;4918303;29;20107;-65
2020/12/17 05:48:14;;;;;;;8.60;5.20;;;11.20;99.90;;;;;;4918418;29;20124;-66
2020/12/17 05:50:55;;;;;;;7.72;4.72;;;11.30;99.90;;;;;;4918596;29;20028;-65
2020/12/17 05:53:23;;;;;;;6.75;4.45;;;11.20;99.90;;;;;;4918281;29;20036;-67
2020/12/17 05:55:52;;;;;;;9.82;4.45;;;11.20;99.90;;;;;;4918140;29;20486;-66
2020/12/17 05:58:18;;;;;;;8.10;5.00;;;11.10;99.90;;;;;;4918139;29;20406;-67
2020/12/17 06:00:43;;;;;;;8.68;4.60;;;11.10;99.90;;;;;;4917939;29;20035;-63
2020/12/17 06:09:40;;;;;;;11.75;5.40;;;11.00;99.90;;;;;;4917895;29;20075;-65
2020/12/17 06:12:06;;;;;;;10.15;4.82;;;10.90;99.90;;;;;;4917588;29;20532;-65
2020/12/17 06:14:34;;;;;;;13.35;5.47;;;10.90;99.90;;;;;;4917891;29;20032;-65
2020/12/17 06:17:05;;;;;;;10.23;5.57;;;10.90;99.90;;;;;;4917918;29;20036;-67
2020/12/17 06:19:35;;;;;;;9.40;5.60;;;10.80;99.90;;;;;;4917799;29;20035;-66
2020/12/17 06:22:08;;;;;;;8.93;4.68;;;10.90;99.90;;;;;;4917760;29;20384;-64
2020/12/17 06:24:34;;;;;;;9.80;5.43;;;10.90;99.90;;;;;;4917447;29;20040;-62
2020/12/17 06:27:08;;;;;;;11.07;5.35;;;10.90;99.90;;;;;;4917488;29;20540;-65
2020/12/17 06:29:47;;;;;;;13.20;5.03;;;10.90;99.90;;;;;;4917684;29;20408;-66
2020/12/17 06:32:16;;;;;;;8.15;4.93;;;11.00;99.90;;;;;;4917743;29;20029;-65
2020/12/17 06:34:46;;;;;;;11.68;5.22;;;10.90;99.90;;;;;;4917327;29;20515;-67
2020/12/17 06:37:15;;;;;;;10.85;4.90;;;10.90;99.90;;;;;;4917355;29;20469;-65
2020/12/17 06:39:48;;;;;;;7.82;4.57;;;10.90;99.90;;;;;;4917211;29;20083;-65
2020/12/17 06:42:37;;;;;;;8.75;5.28;;;10.80;99.90;;;;;;4917262;29;20491;-66
2020/12/17 06:45:23;;;;;;;8.30;5.20;;;10.70;99.90;;;;;;4917074;29;20060;-67
2020/12/17 06:47:49;;;;;;;9.35;5.00;;;10.70;99.90;;;;;;4916216;29;20058;-68
2020/12/17 06:50:24;;;;;;;8.40;5.32;;;10.70;99.90;;;;;;4916980;29;20599;-67
2020/12/17 06:53:12;;;;;;;10.85;5.40;;;10.70;99.90;;;;;;4917371;29;20032;-69
2020/12/17 06:55:39;;;;;;;8.93;5.25;;;10.60;99.90;;;;;;4916870;29;20022;-68
2020/12/17 06:58:05;;;;;;;11.70;5.40;;;10.60;99.90;;;;;;4916977;29;20123;-67
2020/12/17 07:00:31;;;;;;;9.13;4.90;;;10.60;99.90;;;;;;4916965;29;20485;-66
2020/12/17 07:02:57;;;;;;;10.40;5.30;;;10.60;99.90;;;;;;4926358;29;20087;-63
2020/12/17 07:05:36;;;;;;;10.48;5.20;;;10.50;99.90;;;;;;4928073;29;20035;-68
2020/12/17 07:08:02;;;;;;;11.98;5.68;;;10.50;99.90;;;;;;4917082;29;20424;-68
2020/12/17 07:10:30;;;;;;;9.57;5.20;;;10.40;99.90;;;;;;4916992;29;20064;-68
2020/12/17 07:12:56;;;;;;;14.85;5.95;;;10.40;99.90;;;;;;4917161;29;20024;-68
2020/12/17 07:15:37;;;;;;;12.05;5.50;;;10.50;99.90;;;;;;4916929;29;20032;-69
2020/12/17 07:18:24;;;;;;;11.30;5.53;;;10.40;99.90;;;;;;4916853;29;20480;-68
2020/12/17 07:21:04;;;;;;;9.00;5.63;;;10.40;99.90;;;;;;4916999;29;20103;-68
2020/12/17 07:23:35;;;;;;;10.73;5.35;;;10.40;99.90;;;;;;4917056;29;20031;-68
2020/12/17 07:26:22;;;;;;;11.57;5.60;;;10.40;99.90;;;;;;4916953;29;20031;-69
2020/12/17 07:28:54;;;;;;;9.77;5.57;;;10.40;99.90;;;;;;4916910;29;20036;-72
2020/12/17 07:31:24;;;;;;;12.43;6.20;;;10.30;99.90;;;;;;4916852;29;20425;-69
2020/12/17 07:36:53;;;;;;;11.35;5.07;;;12.60;99.90;;;;;;4916784;29;20039;-67
2020/12/17 07:39:18;;;;;;;9.95;4.57;;;13.20;99.90;;;;;;4916603;29;20052;-67
2020/12/17 07:41:44;;;;;;;11.10;5.25;;;13.80;99.90;;;;;;4916713;29;20036;-67
2020/12/17 07:44:10;;;;;;;15.43;5.75;;;13.80;99.90;;;;;;4916760;29;20060;-67
2020/12/17 07:46:37;;;;;;;6.63;3.67;;;13.90;99.90;;;;;;4916639;29;20028;-65
2020/12/17 07:52:34;;;;;;;11.18;3.85;;;14.70;99.90;;;;;;4916498;29;20119;-70
2020/12/17 07:55:02;;;;;;;10.50;3.15;;;15.90;99.90;;;;;;4916739;29;20027;-73
2020/12/17 07:57:28;;;;;;;10.35;3.80;;;15.50;99.90;;;;;;4917805;29;20545;-71
2020/12/17 07:59:53;;;;;;;8.88;3.38;;;15.10;99.90;;;;;;4920692;29;20115;-72
2020/12/17 08:02:19;;;;;;;9.05;3.22;;;15.40;99.90;;;;;;4920753;29;20035;-71
2020/12/17 08:08:12;;;;;;;9.73;3.40;;;15.50;99.90;;;;;;4920213;29;20487;-71
2020/12/17 08:10:38;;;;;;;8.65;3.58;;;15.40;99.90;;;;;;4919979;29;20043;-68
2020/12/17 08:13:05;;;;;;;7.78;3.15;;;16.60;99.90;;;;;;4920016;29;20476;-71
2020/12/17 08:15:31;;;;;;;7.38;3.38;;;16.70;99.90;;;;;;4920017;29;20050;-70
2020/12/17 08:17:57;;;;;;;8.27;3.65;;;16.30;99.90;;;;;;4920175;29;20516;-71
2020/12/17 08:23:46;;;;;;;12.13;3.67;;;14.90;99.90;;;;;;4919987;29;20066;-75
2020/12/17 08:26:23;;;;;;;13.93;4.22;;;14.80;99.90;;;;;;4919753;29;20107;-75
2020/12/17 08:28:50;;;;;;;16.50;4.75;;;14.20;99.90;;;;;;4919215;29;20038;-69
2020/12/17 08:31:27;;;;;;;9.98;3.95;;;13.00;99.90;;;;;;4919810;29;20063;-68
2020/12/17 08:34:00;;;;;;;15.25;4.85;;;12.00;99.90;;;;;;4919920;29;20039;-68
2020/12/17 08:40:04;;;;;;;10.98;4.05;;;10.90;99.90;;;;;;4910506;29;20135;-68
2020/12/17 08:42:36;;;;;;;12.93;4.70;;;10.60;99.90;;;;;;4919577;29;20036;-68
2020/12/17 08:45:11;;;;;;;12.32;4.82;;;10.40;99.90;;;;;;4919566;29;20039;-68
2020/12/17 08:47:39;;;;;;;16.73;4.85;;;10.30;99.90;;;;;;4919503;29;20397;-68
2020/12/17 08:50:09;;;;;;;18.15;5.63;;;10.30;99.90;;;;;;4919342;29;20051;-66
2020/12/17 08:52:35;;;;;;;12.95;5.38;;;10.10;99.90;;;;;;4919097;29;20028;-67
2020/12/17 08:55:09;;;;;;;13.25;5.30;;;10.10;99.90;;;;;;4919425;29;20062;-68
2020/12/17 08:57:36;;;;;;;14.15;5.07;;;9.90;99.90;;;;;;4919078;29;20024;-68
2020/12/17 09:00:04;;;;;;;17.63;5.72;;;9.90;99.90;;;;;;4919033;29;20365;-68
2020/12/17 09:02:30;;;;;;;15.65;5.28;;;9.80;99.90;;;;;;4919383;29;20032;-68
2020/12/17 09:05:02;;;;;;;16.00;5.13;;;9.80;99.90;;;;;;4918656;29;20047;-69
2020/12/17 09:07:29;;;;;;;12.38;4.32;;;9.80;99.90;;;;;;4918893;29;20119;-69
2020/12/17 09:10:11;;;;;;;12.02;4.78;;;9.80;99.90;;;;;;4918238;29;20041;-70
2020/12/17 09:12:37;;;;;;;13.20;5.18;;;9.70;99.90;;;;;;4918742;29;20025;-69
2020/12/17 09:15:14;;;;;;;19.98;7.65;;;9.70;99.90;;;;;;4918879;29;20032;-69
2020/12/17 09:17:40;;;;;;;17.75;7.03;;;9.80;99.90;;;;;;4918989;29;20103;-71
2020/12/17 09:20:17;;;;;;;15.35;5.35;;;9.80;99.90;;;;;;4918644;29;20111;-70
2020/12/17 09:22:43;;;;;;;12.43;5.20;;;9.70;99.90;;;;;;4918868;29;20040;-69
2020/12/17 09:25:09;;;;;;;13.48;4.75;;;9.70;99.90;;;;;;4918860;29;20020;-69
2020/12/17 09:27:36;;;;;;;14.82;5.25;;;9.80;99.90;;;;;;4918655;29;20036;-69
2020/12/17 09:30:19;;;;;;;13.18;4.45;;;9.80;99.90;;;;;;4918448;29;20036;-69
2020/12/17 09:32:53;;;;;;;13.82;4.53;;;9.70;99.90;;;;;;4918428;29;20517;-69
2020/12/17 09:35:20;;;;;;;12.40;4.85;;;9.80;99.90;;;;;;4918299;29;20091;-70
2020/12/17 09:37:59;;;;;;;12.38;4.32;;;9.80;99.90;;;;;;4918441;29;20047;-71
2020/12/17 09:40:26;;;;;;;18.10;4.55;;;9.80;99.90;;;;;;4917996;29;20131;-68
2020/12/17 09:43:04;;;;;;;14.15;4.70;;;9.80;99.90;;;;;;4918136;29;20031;-67
2020/12/17 09:45:33;;;;;;;12.13;4.10;;;9.80;99.90;;;;;;4918462;29;20047;-69
2020/12/17 09:48:00;;;;;;;12.20;3.83;;;9.80;99.90;;;;;;4918290;29;20035;-68
2020/12/17 09:50:25;;;;;;;18.17;4.53;;;9.90;99.90;;;;;;4918101;29;20056;-68
2020/12/17 09:52:51;;;;;;;16.38;4.28;;;9.80;99.90;;;;;;4918008;29;20020;-70
2020/12/17 09:55:16;;;;;;;12.88;3.90;;;9.90;99.90;;;;;;4917818;29;20032;-70
2020/12/17 09:57:44;;;;;;;12.63;3.85;;;9.80;99.90;;;;;;4918039;29;20024;-70
2020/12/17 10:00:12;;;;;;;16.33;3.75;;;9.80;99.90;;;;;;4917774;29;20035;-68
2020/12/17 10:02:38;;;;;;;13.30;4.20;;;9.80;99.90;;;;;;4918087;29;20044;-70
2020/12/17 10:05:05;;;;;;;14.60;4.00;;;9.90;99.90;;;;;;4918088;29;20530;-69
2020/12/17 10:10:53;;;;;;;11.50;3.80;;;10.00;99.90;;;;;;4918103;29;20067;-73
2020/12/17 10:13:18;;;;;;;13.15;3.45;;;10.00;99.90;;;;;;4917737;29;20028;-71
2020/12/17 10:15:44;;;;;;;10.15;3.55;;;9.90;99.90;;;;;;4917950;29;20380;-71
2020/12/17 10:18:10;;;;;;;14.85;3.97;;;10.00;99.90;;;;;;4917202;29;20031;-71
2020/12/17 10:20:36;;;;;;;14.00;4.05;;;10.00;99.90;;;;;;4917816;29;20122;-71
2020/12/17 10:23:02;;;;;;;11.82;3.50;;;10.00;99.90;;;;;;4917485;29;20032;-71
2020/12/17 10:25:28;;;;;;;16.52;3.95;;;10.00;99.90;;;;;;4917562;29;20039;-69
2020/12/17 10:27:55;;;;;;;15.13;3.92;;;10.10;99.90;;;;;;4917663;29;20028;-69
2020/12/17 10:30:21;;;;;;;13.25;3.85;;;10.20;99.90;;;;;;4917534;29;20040;-68
2020/12/17 10:32:47;;;;;;;14.65;4.45;;;10.20;99.90;;;;;;4917226;29;20456;-69
2020/12/17 10:35:13;;;;;;;12.65;3.55;;;10.20;99.90;;;;;;4917345;29;20165;-65
2020/12/17 10:41:00;;;;;;;12.25;3.63;;;10.30;99.90;;;;;;4906315;29;20096;-70
2020/12/17 10:43:26;;;;;;;10.68;3.55;;;10.20;99.90;;;;;;4917311;29;20044;-71
2020/12/17 10:45:51;;;;;;;15.00;3.90;;;10.30;99.90;;;;;;4917548;29;20024;-72
2020/12/17 10:48:17;;;;;;;11.35;3.60;;;10.40;99.90;;;;;;4917383;29;20028;-72
2020/12/17 10:50:43;;;;;;;15.23;3.72;;;10.40;99.90;;;;;;4917257;29;20475;-72
2020/12/17 10:56:30;;;;;;;10.63;3.20;;;10.60;99.90;;;;;;4917263;29;20095;-73
2020/12/17 10:58:56;;;;;;;13.57;3.40;;;10.70;99.90;;;;;;4917237;29;20464;-73
2020/12/17 11:01:23;;;;;;;11.38;3.88;;;10.60;99.90;;;;;;4916681;29;20095;-72
2020/12/17 11:03:48;;;;;;;14.25;3.40;;;10.60;99.90;;;;;;4917129;29;20059;-72
2020/12/17 11:06:18;;;;;;;16.67;3.15;;;10.80;99.90;;;;;;4916915;29;20476;-72
2020/12/17 11:08:44;;;;;;;13.30;3.17;;;10.90;99.90;;;;;;4916839;29;20472;-72
2020/12/17 11:11:11;;;;;;;16.90;3.00;;;11.00;99.90;;;;;;4916917;29;20084;-71
2020/12/17 11:13:37;;;;;;;14.40;3.35;;;11.20;99.90;;;;;;4917126;29;20032;-71
2020/12/17 11:16:03;;;;;;;14.70;3.40;;;11.30;99.90;;;;;;4916816;29;20396;-72
2020/12/17 11:18:29;;;;;;;14.73;2.92;;;11.20;99.90;;;;;;4916952;29;20031;-71
2020/12/17 11:20:55;;;;;;;18.40;3.97;;;11.30;99.90;;;;;;4916928;29;20036;-72
2020/12/17 11:26:45;;;;;;;10.95;2.90;;;11.60;99.90;;;;;;4916813;29;20495;-74
2020/12/17 11:29:12;;;;;;;8.38;2.45;;;11.80;99.90;;;;;;4916470;29;20036;-72
2020/12/17 11:31:38;;;;;;;12.10;2.75;;;11.70;99.90;;;;;;4916272;29;20365;-72
2020/12/17 11:34:04;;;;;;;12.90;2.42;;;11.80;99.90;;;;;;4916911;29;20036;-72
2020/12/17 11:36:30;;;;;;;14.38;2.88;;;11.70;99.90;;;;;;4916797;29;20028;-72
2020/12/17 11:38:56;;;;;;;13.02;2.75;;;11.70;99.90;;;;;;4916440;29;20028;-72
2020/12/17 11:41:22;;;;;;;13.75;3.05;;;11.80;99.90;;;;;;4916297;29;20056;-72
2020/12/17 11:43:47;;;;;;;12.10;2.35;;;11.70;99.90;;;;;;4916439;29;20024;-72
2020/12/17 11:46:17;;;;;;;12.65;2.85;;;11.90;99.90;;;;;;4916492;29;20079;-72
2020/12/17 11:48:43;;;;;;;14.15;2.90;;;11.80;99.90;;;;;;4916410;29;20468;-72
2020/12/17 11:51:08;;;;;;;10.90;2.38;;;11.80;99.90;;;;;;4916415;29;20043;-72
2020/12/17 11:57:02;;;;;;;12.07;2.28;;;11.90;99.90;;;;;;4915444;29;20079;-71
2020/12/17 11:59:29;;;;;;;8.40;2.50;;;11.90;99.90;;;;;;4916287;29;20032;-70
2020/12/17 12:01:56;;;;;;;10.05;2.70;;;12.20;99.90;;;;;;4916372;29;20493;-71
2020/12/17 12:04:22;;;;;;;7.75;2.33;;;12.30;99.90;;;;;;4916343;29;20028;-70
2020/12/17 12:06:49;;;;;;;21.42;11.55;;;12.40;99.90;;;;;;4916094;29;20468;-71
2020/12/17 12:09:18;;;;;;;11.05;2.60;;;12.20;99.90;;;;;;4915845;29;20436;-69
2020/12/17 12:11:52;;;;;;;10.05;2.50;;;12.40;99.90;;;;;;4915907;29;20032;-71
2020/12/17 12:14:18;;;;;;;14.75;6.15;;;12.30;99.90;;;;;;4915889;29;20112;-70
2020/12/17 12:16:44;;;;;;;14.20;2.33;;;12.60;99.90;;;;;;4916036;29;20051;-71
2020/12/17 12:19:10;;;;;;;13.77;2.50;;;12.40;99.90;;;;;;4916066;29;20032;-71
2020/12/17 12:21:35;;;;;;;9.63;2.60;;;12.40;99.90;;;;;;4916005;29;20035;-70
2020/12/17 12:27:23;;;;;;;6.20;2.15;;;12.30;99.90;;;;;;4916080;29;20079;-73
2020/12/17 12:29:49;;;;;;;13.02;2.75;;;12.40;99.90;;;;;;4915664;29;20044;-72
2020/12/17 12:32:16;;;;;;;11.25;2.40;;;12.70;99.90;;;;;;4915919;29;20067;-72
2020/12/17 12:34:42;;;;;;;16.02;3.05;;;12.40;99.90;;;;;;4915999;29;20036;-72
2020/12/17 12:37:08;;;;;;;11.70;2.58;;;12.40;99.90;;;;;;4915872;29;20021;-70
2020/12/17 12:39:33;;;;;;;14.43;2.55;;;12.40;99.90;;;;;;4921913;29;20087;-72
2020/12/17 12:41:59;;;;;;;12.68;2.67;;;12.40;99.90;;;;;;4934633;29;20048;-68
2020/12/17 12:44:25;;;;;;;14.65;2.60;;;12.30;99.90;;;;;;4931676;29;20120;-69
2020/12/17 12:46:50;;;;;;;9.13;2.65;;;12.20;99.90;;;;;;4919293;29;20028;-70
2020/12/17 12:49:17;;;;;;;12.18;2.60;;;12.20;99.90;;;;;;4918620;29;20444;-70
2020/12/17 12:51:43;;;;;;;11.82;2.25;;;12.20;99.90;;;;;;4919125;29;20032;-69
2020/12/17 12:57:31;;;;;;;15.15;2.88;;;12.20;99.90;;;;;;4918627;29;20038;-70
2020/12/17 12:59:56;;;;;;;9.30;2.28;;;12.10;99.90;;;;;;4918971;29;20024;-71
2020/12/17 13:02:22;;;;;;;10.02;2.25;;;12.20;99.90;;;;;;4918864;29;20028;-72
2020/12/17 13:04:47;;;;;;;11.68;1.90;;;12.00;99.90;;;;;;4918800;29;20024;-72
2020/12/17 13:07:13;;;;;;;18.73;2.88;;;12.10;99.90;;;;;;4918123;29;20039;-71
2020/12/17 13:09:39;;;;;;;17.55;2.70;;;12.10;99.90;;;;;;4918514;29;20070;-71
2020/12/17 13:12:05;;;;;;;14.63;2.67;;;12.20;99.90;;;;;;4918378;29;20024;-71
2020/12/17 13:14:30;;;;;;;10.35;2.00;;;12.10;99.90;;;;;;4917918;29;20028;-73
2020/12/17 13:16:56;;;;;;;11.80;2.65;;;12.20;99.90;;;;;;4918597;29;20024;-72
2020/12/17 13:19:22;;;;;;;11.68;2.90;;;12.10;99.90;;;;;;4918327;29;20036;-71
2020/12/17 13:21:48;;;;;;;13.93;2.92;;;12.20;99.90;;;;;;4918437;29;20028;-72
2020/12/17 13:27:35;;;;;;;9.75;2.55;;;12.20;99.90;;;;;;4918161;29;20515;-72
2020/12/17 13:30:01;;;;;;;10.32;2.63;;;12.30;99.90;;;;;;4918335;29;20035;-72
2020/12/17 13:32:28;;;;;;;11.32;2.17;;;12.40;99.90;;;;;;4918449;29;20028;-72
2020/12/17 13:34:54;;;;;;;12.75;2.72;;;12.30;99.90;;;;;;4918485;29;20488;-72
2020/12/17 13:37:19;;;;;;;11.32;2.80;;;12.10;99.90;;;;;;4918490;29;20060;-72
2020/12/17 13:39:45;;;;;;;15.73;2.47;;;12.10;99.90;;;;;;4918432;29;20059;-72
2020/12/17 13:42:11;;;;;;;10.50;2.22;;;12.30;99.90;;;;;;4917905;29;20469;-72
2020/12/17 13:44:36;;;;;;;12.45;2.33;;;12.30;99.90;;;;;;4918160;29;20032;-72
2020/12/17 13:47:02;;;;;;;8.82;2.40;;;12.40;99.90;;;;;;4918143;29;20110;-72
2020/12/17 13:49:28;;;;;;;14.40;2.38;;;12.40;99.90;;;;;;4918227;29;20060;-70
2020/12/17 13:51:54;;;;;;;12.20;2.97;;;12.20;99.90;;;;;;4918272;29;20039;-70
2020/12/17 13:57:42;;;;;;;15.32;3.03;;;12.30;99.90;;;;;;4917968;29;20035;-72
2020/12/17 14:00:07;;;;;;;12.77;2.67;;;12.40;99.90;;;;;;4917765;29;20020;-71
2020/12/17 14:02:34;;;;;;;8.95;2.33;;;12.40;99.90;;;;;;4917738;29;20031;-70
2020/12/17 14:05:00;;;;;;;14.45;2.65;;;12.30;99.90;;;;;;4917712;29;20548;-72
2020/12/17 14:07:25;;;;;;;11.40;2.67;;;12.20;99.90;;;;;;4917673;29;20103;-72
2020/12/17 14:13:13;;;;;;;9.52;2.00;;;12.20;99.90;;;;;;4917863;29;20396;-72
2020/12/17 14:15:40;;;;;;;8.88;2.42;;;12.20;99.90;;;;;;4917691;29;20031;-72
2020/12/17 14:18:06;;;;;;;9.90;2.15;;;12.10;99.90;;;;;;4917265;29;20036;-71